Aviation Digital Data Service (ADDS)

Output produced by METARs form (2043 UTC 27 April 2017)
found at http://aviationweather.gov/adds/metars/
 
KGSP 271720Z 2718/2818 17008KT P6SM VCSH OVC020 
     TEMPO 2721/2801 4SM -TSRA OVC010CB 
     FM280100 21005KT P6SM BKN045 
     FM281000 VRB02KT 5SM BR SCT003 
     FM281300 VRB02KT P6SM SCT070